createdAt,value
2018-08-11T00:03:36.342Z,23.9
2018-08-11T00:08:33.578Z,24.3
2018-08-11T00:13:30.701Z,24.3
2018-08-11T00:18:27.907Z,24.2
2018-08-11T00:23:24.914Z,23.8
2018-08-11T00:28:22.050Z,24.2
2018-08-11T00:33:19.092Z,24.1
2018-08-11T00:38:16.449Z,24.1
2018-08-11T00:43:13.420Z,24
2018-08-11T00:48:10.632Z,24
2018-08-11T00:53:07.984Z,23.3
2018-08-11T00:58:05.205Z,23.9
2018-08-11T01:03:02.599Z,23.2
2018-08-11T01:07:59.860Z,23.8
2018-08-11T01:12:56.933Z,23.8
2018-08-11T01:17:53.832Z,23.7
2018-08-11T01:22:51.019Z,23.7
2018-08-11T01:27:48.131Z,23.6
2018-08-11T01:32:45.419Z,23.6
2018-08-11T01:37:42.728Z,23.6
2018-08-11T01:42:39.889Z,23.4
2018-08-11T01:47:37.159Z,23.5
2018-08-11T01:52:34.348Z,23.4
2018-08-11T01:57:31.514Z,23.4
2018-08-11T02:02:28.756Z,22.9
2018-08-11T02:07:25.875Z,23.3
2018-08-11T02:12:22.991Z,22.8
2018-08-11T02:17:20.216Z,23.2
2018-08-11T02:22:17.479Z,22.9
2018-08-11T02:27:14.626Z,23.1
2018-08-11T02:32:11.751Z,23.1
2018-08-11T02:37:09.002Z,23
2018-08-11T02:42:06.270Z,22.6
2018-08-11T02:47:03.696Z,23
2018-08-11T02:52:00.854Z,22.9
2018-08-11T02:56:57.553Z,22.9
2018-08-11T03:01:54.645Z,22.4
2018-08-11T03:06:52.020Z,22.8
2018-08-11T03:11:49.061Z,22.3
2018-08-11T03:16:46.232Z,22.2
2018-08-11T03:21:43.322Z,22.2
2018-08-11T03:26:40.619Z,22.2
2018-08-11T03:31:37.738Z,22.1
2018-08-11T03:36:34.826Z,22.1
2018-08-11T03:41:31.934Z,22.1
2018-08-11T03:46:29.138Z,21.6
2018-08-11T03:51:26.573Z,22
2018-08-11T03:56:23.994Z,22.5
2018-08-11T04:01:21.262Z,22
2018-08-11T04:06:18.481Z,22
2018-08-11T04:11:15.722Z,22.5
2018-08-11T04:16:13.005Z,22
2018-08-11T04:21:10.355Z,22
2018-08-11T04:26:07.698Z,22
2018-08-11T04:31:04.986Z,22.5
2018-08-11T04:36:02.294Z,22
2018-08-11T04:40:59.403Z,22
2018-08-11T04:45:56.779Z,22.4
2018-08-11T04:55:51.031Z,21.9
2018-08-11T05:00:48.202Z,21.9
2018-08-11T05:05:45.610Z,21.9
2018-08-11T05:10:42.799Z,21.9
2018-08-11T05:15:39.974Z,21.9
2018-08-11T05:20:36.660Z,22.4
2018-08-11T05:25:33.944Z,21.9
2018-08-11T05:30:31.053Z,21.8
2018-08-11T05:35:28.293Z,21.9
2018-08-11T05:40:25.561Z,22.3
2018-08-11T05:45:22.841Z,21.9
2018-08-11T05:50:19.940Z,21.8
2018-08-11T05:55:17.161Z,21.8
2018-08-11T06:00:14.430Z,21.9
2018-08-11T06:05:11.740Z,21.8
2018-08-11T06:10:09.049Z,21.8
2018-08-11T06:15:06.443Z,21.8
2018-08-11T06:20:03.788Z,22.3
2018-08-11T06:25:00.893Z,21.9
2018-08-11T06:29:58.022Z,21.9
2018-08-11T06:34:55.291Z,22
2018-08-11T06:39:52.626Z,21.9
2018-08-11T06:44:49.962Z,22
2018-08-11T06:49:47.243Z,22
2018-08-11T06:54:44.474Z,22
2018-08-11T06:59:41.786Z,22.1
2018-08-11T07:04:39.027Z,22.3
2018-08-11T07:09:36.395Z,22.1
2018-08-11T07:14:33.757Z,22.1
2018-08-11T07:19:30.996Z,22.2
2018-08-11T07:24:28.498Z,22.2
2018-08-11T07:29:25.812Z,22.3
2018-08-11T07:34:23.246Z,22.3
2018-08-11T07:39:20.722Z,22.4
2018-08-11T07:44:18.150Z,22.8
2018-08-11T07:49:15.192Z,22.4
2018-08-11T07:54:12.479Z,22.6
2018-08-11T07:59:10.143Z,23
2018-08-11T08:04:07.340Z,23
2018-08-11T08:09:04.610Z,23.1
2018-08-11T08:14:02.841Z,23.1
2018-08-11T08:19:00.759Z,23
2018-08-11T08:23:58.099Z,23.2
2018-08-11T08:28:55.583Z,23.3
2018-08-11T08:33:53.050Z,23.3
2018-08-11T08:38:50.672Z,22.9
2018-08-11T08:43:48.046Z,23.4
2018-08-11T08:48:45.090Z,23.5
2018-08-11T08:53:42.219Z,23.5
2018-08-11T08:58:39.371Z,23.5
2018-08-11T09:03:36.755Z,23.6
2018-08-11T09:08:34.042Z,23.6
2018-08-11T09:13:31.435Z,23.7
2018-08-11T09:18:28.842Z,23.8
2018-08-11T09:23:25.941Z,23.6
2018-08-11T09:28:23.259Z,23.9
2018-08-11T09:33:20.777Z,23.9
2018-08-11T09:38:18.076Z,23.5
2018-08-11T09:43:15.444Z,24
2018-08-11T09:48:12.707Z,24.1
2018-08-11T09:53:10.063Z,24.1
2018-08-11T09:58:07.538Z,24.2
2018-08-11T10:03:04.865Z,24.2
2018-08-11T10:08:02.174Z,23.8
2018-08-11T10:12:59.468Z,24.3
2018-08-11T10:17:56.532Z,24.4
2018-08-11T10:22:53.961Z,24
2018-08-11T10:27:51.608Z,24.5
2018-08-11T10:32:48.815Z,24.5
2018-08-11T10:37:46.669Z,24.6
2018-08-11T10:42:44.119Z,24.2
2018-08-11T10:47:41.135Z,24.2
2018-08-11T10:52:39.047Z,24.7
2018-08-11T10:57:39.410Z,24.8
2018-08-11T11:02:36.932Z,24.9
2018-08-11T11:07:34.318Z,24.9
2018-08-11T11:12:31.485Z,25
2018-08-11T11:17:29.138Z,25
2018-08-11T11:22:26.338Z,25.1
2018-08-11T11:27:24.170Z,25.1
2018-08-11T11:32:22.204Z,24.5
2018-08-11T11:37:19.849Z,25.3
2018-08-11T11:42:17.391Z,25.3
2018-08-11T11:47:15.123Z,24.7
2018-08-11T11:52:13.071Z,25.4
2018-08-11T11:57:10.300Z,25.5
2018-08-11T12:02:08.287Z,25.5
2018-08-11T12:07:06.393Z,25.2
2018-08-11T12:12:03.786Z,25.7
2018-08-11T12:17:01.609Z,25.8
2018-08-11T12:21:59.138Z,25.2
2018-08-11T12:26:56.444Z,25.8
2018-08-11T12:31:53.652Z,25.4
2018-08-11T12:36:51.098Z,26.1
2018-08-11T12:41:48.516Z,26.1
2018-08-11T12:46:45.928Z,26.2
2018-08-11T12:51:43.129Z,26.3
2018-08-11T12:56:40.574Z,26.4
2018-08-11T13:01:38.423Z,26.5
2018-08-11T13:06:36.028Z,26.5
2018-08-11T13:11:33.168Z,26.6
2018-08-11T13:16:30.757Z,26.7
2018-08-11T13:21:28.525Z,26.8
2018-08-11T13:26:26.252Z,26.9
2018-08-11T13:31:23.978Z,26.3
2018-08-11T13:36:21.339Z,27
2018-08-11T13:41:19.253Z,27.1
2018-08-11T13:46:16.512Z,27.2
2018-08-11T13:51:13.922Z,27.3
2018-08-11T13:56:11.242Z,27.4
2018-08-11T14:01:08.755Z,27.5
2018-08-11T14:06:06.285Z,27.6
2018-08-11T14:11:03.796Z,27.6
2018-08-11T14:16:01.367Z,26.9
2018-08-11T14:20:58.881Z,27.8
2018-08-11T14:25:56.532Z,27.9
2018-08-11T14:30:54.776Z,28
2018-08-11T14:35:52.198Z,27.2
2018-08-11T14:40:49.762Z,28.1
2018-08-11T14:45:47.069Z,28.1
2018-08-11T14:50:44.843Z,28.2
2018-08-11T14:55:42.412Z,28.3
2018-08-11T15:00:39.562Z,28.3
2018-08-11T15:05:37.144Z,28.4
2018-08-11T15:10:34.675Z,27.8
2018-08-11T15:15:32.119Z,28.5
2018-08-11T15:20:28.962Z,28.5
2018-08-11T15:25:26.526Z,28.5
2018-08-11T15:30:23.716Z,28.5
2018-08-11T15:35:20.550Z,28.5
2018-08-11T15:40:18.027Z,28.5
2018-08-11T15:45:15.380Z,28.6
2018-08-11T15:50:12.838Z,28.6
2018-08-11T15:55:10.360Z,28.6
2018-08-11T16:00:07.720Z,28.6
2018-08-11T16:05:05.018Z,28.5
2018-08-11T16:10:02.425Z,28.1
2018-08-11T16:14:59.780Z,28.6
2018-08-11T16:19:57.158Z,28.6
2018-08-11T16:24:54.590Z,28.6
2018-08-11T16:29:52.161Z,28.6
2018-08-11T16:34:49.709Z,27.6
2018-08-11T16:39:47.018Z,28.6
2018-08-11T16:44:44.320Z,28.2
2018-08-11T16:49:41.696Z,28.6
2018-08-11T16:54:39.390Z,28
2018-08-11T16:59:36.867Z,28.5
2018-08-11T17:04:34.434Z,28
2018-08-11T17:09:31.921Z,28.5
2018-08-11T17:14:29.319Z,28.5
2018-08-11T17:19:26.656Z,28.4
2018-08-11T17:24:24.134Z,28.4
2018-08-11T17:29:21.629Z,28.4
2018-08-11T17:34:19.429Z,28.3
2018-08-11T17:39:16.700Z,28.3
2018-08-11T17:44:14.019Z,28.3
2018-08-11T17:49:11.787Z,28.2
2018-08-11T17:54:09.868Z,28.2
2018-08-11T17:59:07.756Z,28.2
2018-08-11T18:04:05.315Z,28.1
2018-08-11T18:09:02.870Z,28.1
2018-08-11T18:14:00.389Z,27.4
2018-08-11T18:18:57.924Z,28
2018-08-11T18:23:55.269Z,28
2018-08-11T18:28:52.822Z,27.9
2018-08-11T18:33:50.215Z,27.9
2018-08-11T18:38:47.571Z,27.8
2018-08-11T18:43:44.981Z,27.8
2018-08-11T18:48:42.053Z,27.7
2018-08-11T18:53:39.294Z,27.7
2018-08-11T18:58:37.207Z,27.6
2018-08-11T19:03:35.565Z,27.6
2018-08-11T19:08:33.758Z,27.5
2018-08-11T19:13:31.777Z,26.6
2018-08-11T19:18:29.446Z,26.7
2018-08-11T19:23:26.285Z,27.3
2018-08-11T19:28:23.544Z,27.1
2018-08-11T19:33:21.049Z,26.8
2018-08-11T19:38:18.657Z,26.4
2018-08-11T19:43:15.878Z,27.1
2018-08-11T19:48:13.302Z,26.6
2018-08-11T19:53:11.034Z,26.3
2018-08-11T19:58:08.412Z,26.3
2018-08-11T20:03:05.657Z,26.9
2018-08-11T20:08:02.166Z,26.8
2018-08-11T20:12:59.710Z,26
2018-08-11T20:17:57.166Z,26
2018-08-11T20:22:54.569Z,26.1
2018-08-11T20:27:51.550Z,25.9
2018-08-11T20:32:48.514Z,25.8
2018-08-11T20:37:45.934Z,25.6
2018-08-11T20:42:43.273Z,26.4
2018-08-11T20:47:40.530Z,26.3
2018-08-11T20:52:37.793Z,25.5
2018-08-11T20:57:35.023Z,25.3
2018-08-11T21:02:32.192Z,26.1
2018-08-11T21:07:29.812Z,25.2
2018-08-11T21:12:27.208Z,26
2018-08-11T21:17:23.974Z,25.9
2018-08-11T21:22:21.275Z,25.9
2018-08-11T21:27:18.547Z,25.8
2018-08-11T21:32:15.925Z,25.8
2018-08-11T21:37:12.931Z,25.7
2018-08-11T21:42:10.337Z,25
2018-08-11T21:47:07.605Z,25.6
2018-08-11T21:52:04.976Z,24.9
2018-08-11T21:57:02.183Z,25.5
2018-08-11T22:01:59.525Z,25.4
2018-08-11T22:06:57.024Z,24.7
2018-08-11T22:11:54.290Z,25.3
2018-08-11T22:16:51.499Z,25.2
2018-08-11T22:21:48.996Z,25.2
2018-08-11T22:26:46.321Z,24.7
2018-08-11T22:31:43.231Z,25.1
2018-08-11T22:36:40.280Z,25
2018-08-11T22:41:37.765Z,25
2018-08-11T22:46:34.601Z,24.9
2018-08-11T22:51:31.704Z,24.9
2018-08-11T22:56:28.938Z,24.8
2018-08-11T23:01:26.161Z,24.8
2018-08-11T23:06:23.466Z,24.7
2018-08-11T23:11:20.756Z,24.6
2018-08-11T23:16:18.092Z,24.6
2018-08-11T23:21:15.486Z,24.5
2018-08-11T23:26:12.920Z,24.5
2018-08-11T23:31:10.311Z,24.4
2018-08-11T23:36:07.687Z,24.4
2018-08-11T23:41:05.231Z,23.9
2018-08-11T23:46:02.478Z,24.1
2018-08-11T23:50:59.349Z,24.2
2018-08-11T23:55:56.693Z,24.1
